Time,TemperatureF,DewpointF,PressureIn,WindDirection,WindDirectionDegrees,WindSpeedMPH,WindSpeedGustMPH,Humidity,HourlyPrecipIn,Conditions,Clouds,dailyrainin,SoftwareType,DateUTC
2013-09-28 00:00:00,48.0,-99.9,-100.00,NNW,334,13.0,19.0,-999,-99.99,,,-99.99,,2013-09-28 06:00:00,
2013-09-28 00:52:00,48.0,-99.9,-100.00,NNW,334,13.0,19.0,-999,-99.99,,,-99.99,,2013-09-28 06:52:00,
2013-09-28 01:00:00,48.0,-99.9,-100.00,NNW,343,9.0,11.0,-999,-99.99,,,-99.99,,2013-09-28 07:00:00,
2013-09-28 01:52:00,48.0,-99.9,-100.00,NNW,343,9.0,11.0,-999,-99.99,,,-99.99,,2013-09-28 07:52:00,
2013-09-28 02:00:00,44.0,-99.9,-100.00,North,350,6.0,12.0,-999,-99.99,,,-99.99,,2013-09-28 08:00:00,
2013-09-28 02:53:00,44.0,-99.9,-100.00,North,350,6.0,12.0,-999,-99.99,,,-99.99,,2013-09-28 08:53:00,
2013-09-28 03:00:00,44.0,-99.9,-100.00,West,280,2.0,4.0,-999,-99.99,,,-99.99,,2013-09-28 09:00:00,
2013-09-28 03:54:00,44.0,-99.9,-100.00,West,280,2.0,4.0,-999,-99.99,,,-99.99,,2013-09-28 09:54:00,
2013-09-28 04:00:00,42.0,-99.9,-100.00,NW,310,8.0,9.0,-999,-99.99,,,-99.99,,2013-09-28 10:00:00,
2013-09-28 04:53:00,42.0,-99.9,-100.00,NW,310,8.0,9.0,-999,-99.99,,,-99.99,,2013-09-28 10:53:00,
2013-09-28 05:00:00,42.0,-99.9,-100.00,WNW,296,10.0,11.0,-999,-99.99,,,-99.99,,2013-09-28 11:00:00,
2013-09-28 05:52:00,42.0,-99.9,-100.00,WNW,296,10.0,11.0,-999,-99.99,,,-99.99,,2013-09-28 11:52:00,
2013-09-28 06:00:00,42.0,-99.9,-100.00,WNW,297,15.0,18.0,-999,-99.99,,,-99.99,,2013-09-28 12:00:00,
2013-09-28 06:52:00,42.0,-99.9,-100.00,WNW,297,15.0,18.0,-999,-99.99,,,-99.99,,2013-09-28 12:52:00,
2013-09-28 07:52:00,42.0,-99.9,-100.00,WNW,299,7.0,9.0,-999,-99.99,,,-99.99,,2013-09-28 13:52:00,
2013-09-28 08:00:00,44.0,-99.9,-100.00,NW,304,8.0,15.0,-999,-99.99,,,-99.99,,2013-09-28 14:00:00,
2013-09-28 08:02:00,42.0,-99.9,-100.00,WNW,299,7.0,9.0,-999,-99.99,,,-99.99,,2013-09-28 14:02:00,
2013-09-28 08:52:00,44.0,-99.9,-100.00,NW,304,8.0,15.0,-999,-99.99,,,-99.99,,2013-09-28 14:52:00,
2013-09-28 09:00:00,50.0,-99.9,-100.00,NNW,329,13.0,23.0,-999,-99.99,,,-99.99,,2013-09-28 15:00:00,
2013-09-28 09:54:00,50.0,-99.9,-100.00,NNW,329,13.0,23.0,-999,-99.99,,,-99.99,,2013-09-28 15:54:00,
2013-09-28 10:00:00,57.0,-99.9,-100.00,NW,324,24.0,26.0,-999,-99.99,,,-99.99,,2013-09-28 16:00:00,
2013-09-28 10:54:00,57.0,-99.9,-100.00,NW,324,24.0,26.0,-999,-99.99,,,-99.99,,2013-09-28 16:54:00,
2013-09-28 11:00:00,60.0,-99.9,-100.00,NNW,327,19.0,23.0,-999,-99.99,,,-99.99,,2013-09-28 17:00:00,
2013-09-28 11:52:00,60.0,-99.9,-100.00,NNW,327,19.0,23.0,-999,-99.99,,,-99.99,,2013-09-28 17:52:00,
2013-09-28 12:00:00,62.0,-99.9,-100.00,NW,314,23.0,26.0,-999,-99.99,,,-99.99,,2013-09-28 18:00:00,
2013-09-28 12:52:00,62.0,-99.9,-100.00,NW,314,23.0,26.0,-999,-99.99,,,-99.99,,2013-09-28 18:52:00,
2013-09-28 13:00:00,64.0,-99.9,-100.00,NNW,332,21.0,26.0,-999,-99.99,,,-99.99,,2013-09-28 19:00:00,
2013-09-28 13:52:00,64.0,-99.9,-100.00,NNW,332,21.0,26.0,-999,-99.99,,,-99.99,,2013-09-28 19:52:00,
2013-09-28 14:00:00,68.0,-99.9,-100.00,NW,310,17.0,22.0,-999,-99.99,,,-99.99,,2013-09-28 20:00:00,
2013-09-28 14:53:00,68.0,-99.9,-100.00,NW,310,17.0,22.0,-999,-99.99,,,-99.99,,2013-09-28 20:53:00,
2013-09-28 15:00:00,68.0,-99.9,-100.00,NW,314,16.0,20.0,-999,-99.99,,,-99.99,,2013-09-28 21:00:00,
2013-09-28 15:55:00,68.0,-99.9,-100.00,NW,314,16.0,20.0,-999,-99.99,,,-99.99,,2013-09-28 21:55:00,
2013-09-28 16:00:00,69.0,-99.9,-100.00,NW,310,13.0,22.0,-999,-99.99,,,-99.99,,2013-09-28 22:00:00,
2013-09-28 16:54:00,69.0,-99.9,-100.00,NW,310,13.0,22.0,-999,-99.99,,,-99.99,,2013-09-28 22:54:00,
2013-09-28 17:00:00,68.0,-99.9,-100.00,West,273,10.0,19.0,-999,-99.99,,,-99.99,,2013-09-28 23:00:00,
2013-09-28 17:53:00,68.0,-99.9,-100.00,West,273,10.0,19.0,-999,-99.99,,,-99.99,,2013-09-28 23:53:00,
2013-09-28 18:00:00,64.0,-99.9,-100.00,WSW,250,8.0,11.0,-999,-99.99,,,-99.99,,2013-09-29 00:00:00,
2013-09-28 18:52:00,64.0,-99.9,-100.00,WSW,250,8.0,11.0,-999,-99.99,,,-99.99,,2013-09-29 00:52:00,
2013-09-28 19:00:00,62.0,-99.9,-100.00,WSW,253,5.0,6.0,-999,-99.99,,,-99.99,,2013-09-29 01:00:00,
2013-09-28 19:52:00,62.0,-99.9,-100.00,WSW,253,5.0,6.0,-999,-99.99,,,-99.99,,2013-09-29 01:52:00,
2013-09-28 20:53:00,55.0,-99.9,-100.00,NW,310,5.0,6.0,-999,-99.99,,,-99.99,,2013-09-29 02:53:00,
2013-09-28 21:00:00,-999.0,-99.9,-100.00,WNW,299,5.0,6.0,-999,-99.99,,,-99.99,,2013-09-29 03:00:00,
2013-09-28 21:03:00,55.0,-99.9,-100.00,NW,310,5.0,6.0,-999,-99.99,,,-99.99,,2013-09-29 03:03:00,
2013-09-28 21:55:00,51.0,-99.9,-100.00,WNW,299,5.0,6.0,-999,-99.99,,,-99.99,,2013-09-29 03:55:00,
2013-09-28 22:00:00,50.0,-99.9,-100.00,West,264,5.0,9.0,-999,-99.99,,,-99.99,,2013-09-29 04:00:00,
2013-09-28 22:54:00,50.0,-99.9,-100.00,West,264,5.0,9.0,-999,-99.99,,,-99.99,,2013-09-29 04:54:00,
2013-09-28 23:00:00,50.0,-99.9,-100.00,East,88,0.0,7.0,-999,-99.99,,,-99.99,,2013-09-29 05:00:00,
2013-09-28 23:53:00,50.0,-99.9,-100.00,East,88,0.0,7.0,-999,-99.99,,,-99.99,,2013-09-29 05:53:00,